Overview Statistics Trail Chart Weather Telemetry Raw packets
 

This is the latest recevied weather packets stored in our database for station/object IU5JAE-13. If no packets are shown the sender has not sent any weather packets the latest 10 day(s).

<< 6 7 8 9 10 11 12 >>
Time Temp. Humidity Pressure Rain* Wind** Luminosity Snow
1788598534 24.44° C 66% 1020.9 hPa 0 mm - 459 W/m² -
1788597932 25° C 63% 1020.8 hPa 0 mm - 439 W/m² -
1788597330 25° C 63% 1020.7 hPa 0 mm - 424 W/m² -
1788596727 25° C 62% 1020.6 hPa 0 mm - 393 W/m² -
1788596125 25.56° C 59% 1020.8 hPa 0 mm - 361 W/m² -
1788595522 25° C 53% 1020.7 hPa 0 mm - 373 W/m² -
1788594920 24.44° C 60% 1020.6 hPa 0 mm - 342 W/m² -
1788594317 23.33° C 60% 1020.3 hPa 0 mm - 314 W/m² -
1788593735 23.89° C 59% 1020.4 hPa 0 mm - 286 W/m² -
1788593133 23.89° C 58% 1020.5 hPa 0 mm - 256 W/m² -
1788592530 23.89° C 57% 1020.5 hPa 0 mm - 227 W/m² -
1788591928 23.89° C 59% 1020.3 hPa 0 mm - 205 W/m² -
1788591326 23.89° C 58% 1020.3 hPa 0 mm - 183 W/m² -
1788590723 24.44° C 56% 1020.3 hPa 0 mm - 160 W/m² -
1788590121 24.44° C 58% 1020.1 hPa 0 mm - 133 W/m² -
1788589518 23.33° C 60% 1020 hPa 0 mm - 102 W/m² -
1788588916 22.22° C 61% 1020 hPa 0 mm - 83 W/m² -
1788588334 22.22° C 61% 1020.3 hPa 0 mm - 69 W/m² -
1788587731 22.78° C 58% 1020.1 hPa 0 mm - 57 W/m² -
1788587129 21.11° C 61% 1020 hPa 0 mm - 45 W/m² -
1788586526 21.11° C 62% 1020 hPa 0 mm - 35 W/m² -
1788585924 20° C 64% 1020 hPa 0 mm - 25 W/m² -
1788585321 18.89° C 66% 1020.1 hPa 0 mm - 17 W/m² -
1788584719 18.33° C 66% 1019.8 hPa 0 mm - 10 W/m² -
1788584117 18.33° C 65% 1019.9 hPa 0 mm - 5 W/m² -

* Rain latest hour (hover to see other rain measurements)
** Current wind speed in m/s (hover to see current wind gust speed)